Time;durP1;ratioP1;P1;durP2;ratioP2;P2;SDS_P1;SDS_P2;PMS_P1;PMS_P2;Temp;Humidity;BMP_temperature;BMP_pressure;BME280_temperature;BME280_humidity;BME280_pressure;Samples;Min_cycle;Max_cycle;Signal;HPM_P1;HPM_P2
2023/06/16 00:00:24;;;;;;;8.13;6.57;;;14.50;74.70;;;14.04;65.46;97917.03;5046341;28;20474;-81
2023/06/16 00:02:51;;;;;;;7.10;5.80;;;14.40;75.40;;;13.88;66.08;97922.16;5037979;28;20449;-85
2023/06/16 00:05:18;;;;;;;7.23;6.53;;;14.30;75.70;;;13.94;65.94;97922.25;4997043;28;20473;-81
2023/06/16 00:07:48;;;;;;;6.50;5.80;;;14.20;76.30;;;13.88;66.36;97929.47;5016416;28;21093;-85
2023/06/16 00:10:17;;;;;;;7.10;6.40;;;14.20;76.30;;;13.72;66.61;97936.44;5037557;28;20467;-77
2023/06/16 00:12:45;;;;;;;6.23;5.63;;;14.10;76.40;;;13.67;66.71;97928.19;5048243;28;20473;-80
2023/06/16 00:15:12;;;;;;;8.53;6.27;;;14.00;76.60;;;13.68;66.94;97927.97;5029644;28;20550;-87
2023/06/16 00:17:44;;;;;;;7.70;6.57;;;14.00;77.00;;;13.64;66.91;97929.47;5025984;28;20485;-79
2023/06/16 00:20:13;;;;;;;6.43;5.83;;;14.00;77.50;;;13.60;66.94;97934.59;5043458;28;20748;-80
2023/06/16 00:22:47;;;;;;;7.90;5.93;;;13.90;77.30;;;13.56;67.24;97938.00;5039280;28;20468;-76
2023/06/16 00:25:18;;;;;;;7.37;6.67;;;13.90;77.50;;;12.85;67.36;97825.69;4998387;28;20472;-86
2023/06/16 00:27:45;;;;;;;8.10;7.10;;;13.90;77.70;;;13.51;67.25;97927.84;5008408;28;21037;-85
2023/06/16 00:30:14;;;;;;;7.70;6.50;;;13.90;77.60;;;13.56;67.09;97940.72;5024605;28;20478;-76
2023/06/16 00:32:41;;;;;;;7.40;6.50;;;13.90;77.70;;;13.39;67.55;97935.13;5009206;28;20456;-82
2023/06/16 00:35:09;;;;;;;7.13;6.47;;;13.80;77.50;;;13.38;67.75;97930.78;5009282;28;20467;-84
2023/06/16 00:37:37;;;;;;;6.90;6.30;;;13.80;77.80;;;13.42;67.60;97937.38;5037722;28;20479;-84
2023/06/16 00:40:06;;;;;;;8.10;7.40;;;13.80;78.00;;;13.32;68.35;97936.09;5027837;28;20476;-78
2023/06/16 00:42:35;;;;;;;6.80;6.10;;;13.70;78.40;;;13.27;68.44;97933.25;5015149;28;20449;-83
2023/06/16 00:45:02;;;;;;;6.70;6.10;;;13.60;78.80;;;13.20;68.57;97934.44;5017610;28;21014;-80
2023/06/16 00:47:30;;;;;;;7.27;6.43;;;13.50;79.30;;;13.15;69.15;97932.41;5027664;28;20525;-84
2023/06/16 00:49:58;;;;;;;7.23;6.53;;;13.40;79.70;;;12.97;69.23;97915.19;5013718;28;21092;-89
2023/06/16 00:52:32;;;;;;;7.73;6.93;;;13.40;80.10;;;13.15;69.11;97937.84;5035465;28;20475;-80
2023/06/16 00:55:00;;;;;;;6.13;5.53;;;13.40;80.00;;;13.21;68.79;97936.91;5026494;28;20464;-82
2023/06/16 00:57:27;;;;;;;6.47;5.77;;;13.50;79.90;;;13.03;69.77;97940.53;5045338;28;20478;-81
2023/06/16 00:59:56;;;;;;;6.93;6.33;;;13.40;80.10;;;13.06;69.74;97937.38;5046288;28;20457;-87
2023/06/16 01:02:24;;;;;;;5.73;5.23;;;13.40;80.70;;;13.10;69.76;97945.84;5019860;28;20457;-81
2023/06/16 01:04:51;;;;;;;7.10;5.57;;;13.40;80.60;;;13.03;69.30;97935.09;5011427;28;20555;-85
2023/06/16 01:07:28;;;;;;;6.53;5.80;;;13.40;80.50;;;12.88;69.64;97936.38;5028800;28;20584;-87
2023/06/16 01:10:03;;;;;;;6.40;5.80;;;13.30;80.50;;;12.70;70.46;97918.31;5019778;28;20463;-84
2023/06/16 01:12:40;;;;;;;6.53;5.93;;;13.30;80.90;;;12.84;70.11;97926.25;5029644;28;20505;-84
2023/06/16 01:15:15;;;;;;;9.80;5.93;;;13.30;80.90;;;12.78;70.86;97932.56;5025354;28;20466;-85
2023/06/16 01:17:46;;;;;;;9.63;6.30;;;13.20;81.20;;;12.74;70.67;97933.03;5013885;28;20476;-76
2023/06/16 01:20:25;;;;;;;6.20;5.60;;;13.10;81.40;;;12.64;71.04;97934.66;5031661;28;20990;-85
2023/06/16 01:23:02;;;;;;;6.73;5.83;;;13.10;81.50;;;12.39;71.10;97885.00;5015717;28;20466;-88
2023/06/16 01:25:33;;;;;;;6.00;5.40;;;13.10;81.80;;;12.61;71.07;97927.81;5039086;28;20474;-75
2023/06/16 01:28:03;;;;;;;6.47;5.70;;;13.00;81.80;;;12.64;71.50;97929.25;5043316;28;20524;-75
2023/06/16 01:30:33;;;;;;;5.20;4.70;;;13.00;82.40;;;12.72;71.00;97928.91;5053972;28;20455;-79
2023/06/16 01:33:02;;;;;;;6.00;5.50;;;13.00;82.50;;;12.67;71.13;97923.34;5034630;28;20472;-83
2023/06/16 01:35:30;;;;;;;6.07;5.47;;;13.00;82.50;;;12.67;71.46;97918.78;5046140;28;20514;-90
2023/06/16 01:37:59;;;;;;;6.20;5.60;;;13.00;82.90;;;12.81;70.96;97924.81;5032722;28;20483;-87
2023/06/16 01:40:27;;;;;;;5.67;5.13;;;13.10;82.30;;;12.81;70.80;97921.25;5032626;28;20460;-78
2023/06/16 01:42:57;;;;;;;6.13;5.50;;;13.20;81.90;;;12.70;70.72;97904.75;5032859;28;20694;-86
2023/06/16 01:45:25;;;;;;;6.00;5.40;;;13.20;81.80;;;12.75;70.93;97913.00;5012598;28;21143;-77
2023/06/16 01:47:53;;;;;;;6.73;5.93;;;13.10;81.80;;;12.69;70.59;97913.09;5034174;28;20524;-85
2023/06/16 01:50:22;;;;;;;7.07;6.37;;;13.10;81.70;;;12.59;70.50;97919.09;5012903;28;20543;-79
2023/06/16 01:52:50;;;;;;;6.63;5.77;;;13.00;81.60;;;12.51;71.26;97917.53;5031191;28;20974;-86
2023/06/16 01:55:17;;;;;;;7.57;6.30;;;12.90;81.80;;;12.41;71.58;97922.66;5008801;28;21043;-84
2023/06/16 01:57:44;;;;;;;6.37;5.50;;;12.80;82.30;;;12.45;71.30;97918.47;5031646;28;20447;-88
2023/06/16 02:00:20;;;;;;;6.30;5.50;;;12.80;82.40;;;12.26;71.71;97901.44;5027924;28;20470;-87
2023/06/16 02:02:55;;;;;;;6.20;5.60;;;12.70;82.80;;;12.32;71.91;97914.03;5035464;28;20479;-83
2023/06/16 02:05:25;;;;;;;8.60;4.70;;;12.60;83.00;;;12.40;71.54;97921.88;5030062;28;20455;-84
2023/06/16 02:07:56;;;;;;;7.80;6.30;;;12.70;83.10;;;12.29;72.23;97917.22;5027169;28;20513;-86
2023/06/16 02:10:24;;;;;;;6.83;6.20;;;12.60;83.60;;;12.35;71.86;97908.16;5028130;28;20493;-85
2023/06/16 02:12:52;;;;;;;8.40;6.17;;;12.70;83.90;;;12.33;71.77;97926.53;5025174;28;20460;-83
2023/06/16 02:15:21;;;;;;;8.27;5.70;;;12.60;83.60;;;12.38;71.54;97921.28;5005723;28;20462;-84
2023/06/16 02:17:50;;;;;;;7.17;6.20;;;12.60;83.50;;;12.26;72.35;97925.81;5028669;28;20462;-85
2023/06/16 02:20:18;;;;;;;8.33;7.13;;;12.50;84.50;;;11.73;72.41;97852.28;5031108;28;20482;-84
2023/06/16 02:22:45;;;;;;;7.63;6.83;;;12.40;84.70;;;12.15;72.55;97930.13;5026561;28;20460;-82
2023/06/16 02:25:13;;;;;;;8.17;7.37;;;12.40;84.70;;;12.02;72.89;97909.44;5025851;28;20463;-84
2023/06/16 02:27:40;;;;;;;6.53;5.93;;;12.30;85.00;;;12.15;72.96;97925.50;5015792;28;20495;-85
2023/06/16 02:30:09;;;;;;;7.60;5.93;;;12.40;85.10;;;12.06;73.51;97921.47;5013637;28;20470;-77
2023/06/16 02:32:37;;;;;;;7.60;6.53;;;12.40;85.40;;;12.05;72.93;97922.50;5025398;28;20488;-86
2023/06/16 02:35:07;;;;;;;7.27;6.43;;;12.40;85.00;;;11.97;73.42;97917.38;5035345;28;20523;-85
2023/06/16 02:37:36;;;;;;;7.03;6.33;;;12.40;85.10;;;11.86;73.90;97914.38;5026834;28;20506;-84
2023/06/16 02:40:05;;;;;;;8.10;6.87;;;12.30;85.50;;;11.54;73.87;97883.94;5018557;28;20620;-78
2023/06/16 02:42:32;;;;;;;7.87;6.50;;;12.30;85.40;;;11.71;74.20;97909.34;5028988;28;20577;-82
2023/06/16 02:45:00;;;;;;;7.00;6.20;;;12.20;86.20;;;11.69;74.68;97916.03;5024552;28;21018;-84
2023/06/16 02:47:28;;;;;;;8.00;6.43;;;12.20;86.10;;;11.58;75.02;97925.72;5012234;28;21124;-83
2023/06/16 02:49:57;;;;;;;8.00;6.40;;;12.10;86.30;;;11.58;74.91;97926.53;5013969;28;20527;-79
2023/06/16 02:52:25;;;;;;;7.80;6.70;;;12.00;86.90;;;11.44;75.08;97919.63;5027677;28;20469;-84
2023/06/16 02:54:52;;;;;;;6.10;5.53;;;12.00;87.20;;;11.16;74.90;97864.16;5012784;28;20462;-83
2023/06/16 02:57:20;;;;;;;11.10;6.57;;;11.90;87.20;;;11.34;75.98;97899.31;5036295;28;20497;-82
2023/06/16 02:59:47;;;;;;;6.80;6.20;;;11.90;88.30;;;11.40;75.69;97923.81;5030358;28;20577;-83
2023/06/16 03:02:14;;;;;;;6.73;6.00;;;11.80;88.40;;;11.51;75.94;97924.97;5027077;28;20466;-79
2023/06/16 03:04:42;;;;;;;9.63;6.30;;;11.90;89.20;;;11.67;75.37;97923.56;5012111;28;21086;-82
2023/06/16 03:07:12;;;;;;;7.40;6.17;;;12.00;88.30;;;11.69;75.32;97924.16;5036461;28;20482;-79
2023/06/16 03:09:39;;;;;;;7.30;6.60;;;12.00;88.10;;;11.73;74.92;97922.66;5029652;28;20491;-80
2023/06/16 03:12:10;;;;;;;7.07;6.37;;;12.00;87.60;;;11.69;74.86;97922.28;5045304;28;20455;-81
2023/06/16 03:14:37;;;;;;;7.27;6.13;;;12.00;87.80;;;11.66;74.98;97922.72;5037549;28;20457;-78
2023/06/16 03:17:05;;;;;;;7.50;6.40;;;12.10;87.40;;;11.62;74.70;97921.50;5044853;28;20464;-78
2023/06/16 03:19:32;;;;;;;7.43;6.63;;;12.00;87.50;;;11.59;75.02;97917.38;5035141;28;20479;-80
2023/06/16 03:22:00;;;;;;;7.20;6.50;;;12.00;87.40;;;11.13;74.80;97842.94;5027246;28;20457;-82
2023/06/16 03:24:33;;;;;;;9.10;6.60;;;12.00;87.50;;;11.58;74.91;97909.50;5006985;28;20521;-83
2023/06/16 03:27:02;;;;;;;6.30;5.70;;;12.00;87.00;;;11.70;74.92;97917.69;5005019;28;20452;-83
2023/06/16 03:29:30;;;;;;;7.17;6.43;;;12.00;87.00;;;11.72;74.47;97910.16;5015331;28;20466;-85
2023/06/16 03:31:57;;;;;;;7.63;5.80;;;12.10;87.10;;;11.81;74.64;97913.41;5010816;28;20454;-82
2023/06/16 03:34:25;;;;;;;6.47;5.83;;;12.20;86.40;;;11.67;75.01;97921.66;5018825;28;20451;-85
2023/06/16 03:36:52;;;;;;;7.80;7.00;;;12.20;86.60;;;11.72;74.99;97918.28;5011320;28;20536;-86
2023/06/16 03:39:20;;;;;;;7.47;6.87;;;12.10;86.80;;;11.77;73.90;97927.38;5008374;28;20498;-82
2023/06/16 03:41:49;;;;;;;7.87;7.07;;;12.20;86.20;;;11.84;74.01;97924.59;5009773;28;20519;-83
2023/06/16 03:44:16;;;;;;;9.20;6.83;;;12.20;85.80;;;11.84;73.92;97913.78;5022608;28;20470;-84
2023/06/16 03:46:44;;;;;;;8.20;7.33;;;12.30;85.70;;;12.04;73.83;97923.56;5029993;28;20446;-86
2023/06/16 03:49:11;;;;;;;8.73;6.73;;;12.30;85.50;;;12.14;72.73;97940.09;5031405;28;21212;-86
2023/06/16 03:51:39;;;;;;;8.60;7.70;;;12.40;85.00;;;12.25;72.39;97924.16;5007693;28;20492;-81
2023/06/16 03:54:07;;;;;;;9.40;6.80;;;12.50;84.60;;;12.26;71.90;97923.09;5028061;28;20884;-82
2023/06/16 03:56:34;;;;;;;7.00;6.30;;;12.60;83.80;;;12.42;71.55;97925.16;5011203;28;20509;-84
2023/06/16 03:59:03;;;;;;;7.20;6.00;;;12.70;83.10;;;12.51;71.10;97927.53;5030512;28;21129;-80
2023/06/16 04:01:31;;;;;;;8.07;7.27;;;12.90;82.50;;;12.60;70.87;97923.44;5028185;28;20561;-82
2023/06/16 04:03:58;;;;;;;8.07;7.13;;;12.90;82.30;;;12.75;70.09;97920.31;5026543;28;20483;-85
2023/06/16 04:06:26;;;;;;;6.77;6.13;;;13.10;81.70;;;13.35;68.02;97923.09;5031296;28;20463;-82
2023/06/16 04:08:56;;;;;;;7.80;7.00;;;13.50;80.60;;;14.00;65.07;97921.28;5028564;28;20543;-82
2023/06/16 04:11:23;;;;;;;7.70;6.47;;;14.20;78.30;;;14.16;64.67;97928.66;5035262;28;20533;-84
2023/06/16 04:13:51;;;;;;;7.50;6.80;;;14.60;77.40;;;14.06;65.12;97919.50;5035051;28;20548;-81
2023/06/16 04:16:20;;;;;;;7.27;6.40;;;14.60;77.00;;;14.14;64.91;97927.28;5014721;28;20449;-80
2023/06/16 04:18:48;;;;;;;10.17;6.90;;;14.60;77.10;;;13.98;65.33;97916.09;5019302;28;20581;-83
2023/06/16 04:21:15;;;;;;;6.97;6.27;;;14.50;77.80;;;14.14;65.32;97921.84;5026326;28;20577;-82
2023/06/16 04:23:42;;;;;;;7.90;6.97;;;14.50;77.50;;;14.07;65.48;97921.16;5025713;28;20463;-83
2023/06/16 04:26:10;;;;;;;8.13;7.17;;;14.60;77.40;;;14.40;64.37;97920.44;5023014;28;20469;-82
2023/06/16 04:28:38;;;;;;;8.43;7.27;;;15.00;76.70;;;15.17;62.06;97916.63;5027813;28;20555;-84
2023/06/16 04:31:09;;;;;;;7.70;6.93;;;15.60;75.60;;;14.96;61.32;97838.22;5004401;28;20533;-85
2023/06/16 04:33:41;;;;;;;6.63;6.03;;;16.20;73.70;;;16.00;58.28;97842.34;5011257;28;20538;-86
2023/06/16 04:36:09;;;;;;;6.70;6.10;;;17.00;72.00;;;17.76;54.48;97905.75;5012687;28;20979;-81
2023/06/16 04:38:36;;;;;;;6.70;6.00;;;18.00;69.20;;;18.33;53.33;97909.56;5017490;28;20466;-82
2023/06/16 04:41:05;;;;;;;6.60;6.00;;;18.60;67.00;;;19.19;50.20;97906.44;5037475;28;20450;-83
2023/06/16 04:43:32;;;;;;;7.33;6.63;;;19.50;63.70;;;18.92;50.60;97910.22;5031556;28;20458;-81
2023/06/16 04:45:59;;;;;;;8.43;7.47;;;19.60;62.20;;;18.52;51.09;97911.78;5018699;28;20497;-85
2023/06/16 04:48:27;;;;;;;9.20;8.30;;;19.50;61.20;;;19.31;49.48;97908.88;5022030;28;20450;-77
2023/06/16 04:50:57;;;;;;;6.97;6.30;;;20.10;60.30;;;19.92;48.29;97912.59;5013692;28;20462;-86
2023/06/16 04:53:24;;;;;;;10.13;8.00;;;20.30;59.80;;;20.14;46.83;97853.03;5031857;28;20473;-82
2023/06/16 04:55:51;;;;;;;16.33;8.00;;;20.90;58.50;;;20.44;46.62;97917.03;5030158;28;20462;-82
2023/06/16 04:58:19;;;;;;;11.73;8.93;;;21.10;57.30;;;21.15;45.08;97914.91;5033573;28;20523;-80
2023/06/16 05:00:46;;;;;;;9.70;8.80;;;21.40;56.80;;;21.06;45.05;97911.16;5028038;28;20498;-78
2023/06/16 05:03:13;;;;;;;8.50;7.70;;;21.30;56.20;;;20.92;45.25;97909.06;5040124;28;20470;-75
2023/06/16 05:05:41;;;;;;;9.37;8.47;;;21.40;55.60;;;20.48;46.21;97912.63;5052660;28;20724;-71
2023/06/16 05:08:11;;;;;;;9.57;8.67;;;20.90;55.90;;;20.34;45.95;97913.25;5049997;28;20925;-72
2023/06/16 05:10:39;;;;;;;9.87;8.97;;;21.00;55.30;;;20.24;45.88;97858.44;5056516;28;20444;-70
2023/06/16 05:13:06;;;;;;;8.53;7.73;;;21.00;55.70;;;21.53;44.26;97908.81;5037474;28;20443;-72
2023/06/16 05:15:33;;;;;;;9.47;8.60;;;21.50;55.50;;;22.03;42.67;97905.00;5025390;28;20437;-73
2023/06/16 05:18:00;;;;;;;10.20;9.30;;;22.20;54.60;;;21.01;44.76;97905.72;5046494;28;20446;-72
2023/06/16 05:20:30;;;;;;;9.97;9.07;;;22.00;53.90;;;21.06;44.72;97902.94;5040008;28;20732;-76
2023/06/16 05:22:58;;;;;;;9.97;9.10;;;21.70;54.00;;;21.07;44.74;97905.38;5041778;28;20455;-76
2023/06/16 05:25:26;;;;;;;10.60;9.70;;;21.70;53.90;;;20.19;46.54;97911.41;5025994;28;20490;-74
2023/06/16 05:27:54;;;;;;;11.10;10.00;;;21.30;54.00;;;19.35;48.38;97903.66;5050180;28;20450;-77
2023/06/16 05:30:21;;;;;;;10.67;9.67;;;20.50;54.70;;;19.10;49.22;97919.00;5041961;28;20649;-75
2023/06/16 05:32:49;;;;;;;12.73;11.53;;;19.70;55.80;;;18.73;50.36;97920.03;5042473;28;20496;-73
2023/06/16 05:35:16;;;;;;;12.57;10.57;;;19.30;56.70;;;18.23;51.22;97863.03;5028204;28;22398;-74
2023/06/16 05:37:43;;;;;;;10.20;9.30;;;18.80;57.60;;;19.22;49.61;97910.50;5022801;28;20462;-78
2023/06/16 05:40:12;;;;;;;10.70;9.67;;;19.20;57.90;;;19.35;49.34;97914.63;5020423;28;20479;-76
2023/06/16 05:42:40;;;;;;;10.67;9.67;;;19.40;58.00;;;19.08;50.18;97915.72;5029888;28;20453;-73
2023/06/16 05:45:09;;;;;;;11.40;10.30;;;19.50;58.10;;;19.49;49.22;97920.34;5028645;28;20977;-74
2023/06/16 05:47:36;;;;;;;9.80;8.90;;;19.50;58.00;;;19.62;49.45;97924.44;5020958;28;20469;-72
2023/06/16 05:50:03;;;;;;;9.77;8.90;;;19.70;58.00;;;18.99;51.29;97945.56;5002760;28;20883;-73
2023/06/16 05:52:31;;;;;;;10.10;9.10;;;19.50;58.70;;;17.77;54.87;97949.19;5021870;28;20477;-72
2023/06/16 05:54:58;;;;;;;9.50;8.50;;;18.50;60.10;;;17.67;55.54;97962.81;5016659;28;20687;-74
2023/06/16 05:57:25;;;;;;;10.67;9.67;;;18.20;61.60;;;17.53;55.90;97960.53;5002732;28;20447;-74
2023/06/16 05:59:54;;;;;;;10.20;8.60;;;17.90;62.10;;;17.14;56.95;97963.50;5023553;28;20469;-74
2023/06/16 06:02:24;;;;;;;11.03;9.03;;;17.70;63.00;;;17.32;56.78;97975.09;5019733;28;20565;-73
2023/06/16 06:04:51;;;;;;;9.37;8.47;;;17.70;63.50;;;17.77;55.78;97975.69;5019715;28;20466;-73
2023/06/16 06:07:18;;;;;;;12.00;10.87;;;18.00;63.60;;;18.15;54.55;97981.13;5023407;28;20519;-72
2023/06/16 06:09:46;;;;;;;11.40;10.40;;;18.70;62.40;;;19.14;51.39;97985.00;5028942;28;20469;-73
2023/06/16 06:12:13;;;;;;;10.90;9.73;;;19.60;60.30;;;18.69;52.55;97980.78;5029059;28;20492;-74
2023/06/16 06:14:40;;;;;;;10.07;9.00;;;19.30;60.40;;;19.58;49.24;97924.19;5029395;28;20459;-74
2023/06/16 06:17:09;;;;;;;10.90;10.00;;;20.10;59.50;;;20.14;48.33;97963.50;5010831;28;20811;-73
2023/06/16 06:19:37;;;;;;;11.27;9.70;;;21.00;57.80;;;20.17;48.31;97953.91;5009181;28;20485;-75
2023/06/16 06:22:05;;;;;;;11.07;9.97;;;21.30;56.80;;;20.86;46.80;97956.91;5019430;28;20455;-75
2023/06/16 06:24:35;;;;;;;9.37;8.57;;;21.50;56.60;;;21.90;44.46;97964.25;5021570;28;20477;-74
2023/06/16 06:27:02;;;;;;;10.40;9.40;;;22.30;55.70;;;21.90;43.58;97929.34;5018314;28;20462;-72
2023/06/16 06:29:30;;;;;;;10.43;9.33;;;22.70;54.50;;;21.94;43.23;97959.84;5005661;28;20451;-75
2023/06/16 06:31:57;;;;;;;10.77;9.67;;;22.90;53.70;;;20.75;45.80;97956.09;5006043;28;20458;-72
2023/06/16 06:34:26;;;;;;;9.43;8.63;;;22.50;53.30;;;21.15;45.47;97947.06;5021756;28;20565;-76
2023/06/16 06:36:54;;;;;;;9.50;8.60;;;21.80;54.00;;;21.46;44.59;97961.38;5002277;28;20452;-75
2023/06/16 06:39:21;;;;;;;10.73;9.73;;;21.70;54.30;;;21.02;44.85;97943.88;5002416;28;20478;-75
2023/06/16 06:41:48;;;;;;;9.50;8.60;;;21.70;54.00;;;21.31;44.82;97972.50;5005825;28;20455;-74
2023/06/16 06:44:16;;;;;;;8.97;8.17;;;21.60;54.20;;;20.55;48.24;97969.94;5027464;28;20447;-76
2023/06/16 06:46:43;;;;;;;8.50;7.60;;;21.10;55.50;;;21.43;45.27;97972.94;5021235;28;20481;-74
2023/06/16 06:49:10;;;;;;;9.07;8.27;;;21.40;55.10;;;20.99;44.96;97971.06;5009176;28;21060;-76
2023/06/16 06:51:40;;;;;;;8.80;8.00;;;21.30;54.10;;;20.59;45.81;97982.81;5023719;28;21020;-74
2023/06/16 06:54:07;;;;;;;9.23;8.43;;;21.10;54.40;;;20.18;47.13;97980.25;5025317;28;20462;-75
2023/06/16 06:56:35;;;;;;;7.63;6.97;;;20.60;54.80;;;20.06;47.90;97984.09;5025560;28;20454;-75
2023/06/16 06:59:02;;;;;;;8.77;7.60;;;20.40;55.60;;;20.17;47.46;97981.34;5024416;28;20593;-77
2023/06/16 07:01:29;;;;;;;8.50;7.70;;;20.30;55.30;;;19.47;49.26;97978.16;5020579;28;20532;-77
2023/06/16 07:03:57;;;;;;;8.13;7.00;;;20.10;55.90;;;19.71;48.12;97972.09;5005828;28;20600;-77
2023/06/16 07:06:24;;;;;;;8.13;7.43;;;19.90;55.60;;;19.70;47.79;97973.19;5028998;28;20535;-76
2023/06/16 07:08:54;;;;;;;7.30;6.60;;;19.90;55.50;;;19.60;47.96;97959.50;5003898;28;20455;-77
2023/06/16 07:11:22;;;;;;;6.60;6.07;;;19.80;55.60;;;19.82;47.40;97987.44;5022937;28;22516;-75
2023/06/16 07:13:49;;;;;;;6.30;5.70;;;19.90;55.40;;;19.80;47.83;97991.53;5021818;28;20466;-75
2023/06/16 07:16:16;;;;;;;7.33;5.50;;;20.00;55.60;;;19.31;48.65;97946.38;5027476;28;21003;-81
2023/06/16 07:18:43;;;;;;;8.83;5.33;;;20.00;55.80;;;20.27;47.17;97981.31;5010037;28;20698;-76
2023/06/16 07:21:10;;;;;;;5.60;5.10;;;20.30;55.60;;;20.24;45.87;97979.09;5026865;28;20594;-79
2023/06/16 07:23:39;;;;;;;5.47;4.97;;;20.50;54.50;;;20.04;46.00;97986.31;5031777;28;20461;-77
2023/06/16 07:26:08;;;;;;;5.63;5.13;;;20.40;54.40;;;19.82;46.31;97959.19;5002373;28;20465;-73
2023/06/16 07:28:35;;;;;;;5.60;5.10;;;20.30;54.20;;;20.07;46.30;97996.72;5026235;28;20459;-76
2023/06/16 07:31:02;;;;;;;6.07;4.97;;;20.40;54.50;;;20.09;46.84;97993.72;5006334;28;20454;-74
2023/06/16 07:33:30;;;;;;;6.30;5.70;;;20.30;54.60;;;20.28;46.91;97990.34;5007569;28;20468;-77
2023/06/16 07:35:57;;;;;;;5.37;4.57;;;20.40;55.00;;;20.41;44.77;97977.97;5029764;28;20462;-78
2023/06/16 07:38:25;;;;;;;5.47;4.90;;;20.60;53.70;;;20.81;44.32;97998.09;5024982;28;20463;-74
2023/06/16 07:40:52;;;;;;;6.83;6.23;;;20.90;53.70;;;20.74;44.83;97997.56;5022127;28;21069;-79
2023/06/16 07:43:21;;;;;;;8.90;5.80;;;21.00;53.80;;;20.60;44.68;98003.66;5025614;28;20469;-76
2023/06/16 07:45:50;;;;;;;5.57;5.07;;;21.00;53.30;;;19.74;46.60;97993.47;5007003;28;20545;-77
2023/06/16 07:48:17;;;;;;;5.37;4.80;;;20.40;53.60;;;19.69;47.16;97990.75;5031024;28;20466;-74
2023/06/16 07:50:44;;;;;;;6.30;5.70;;;20.10;54.50;;;19.27;48.94;97994.59;5021133;28;20513;-72
2023/06/16 07:53:11;;;;;;;6.30;5.70;;;19.80;55.10;;;19.42;48.35;97980.91;5011414;28;20469;-72
2023/06/16 07:55:39;;;;;;;6.40;5.47;;;19.80;55.40;;;19.72;48.26;97984.72;5012202;28;20458;-76
2023/06/16 07:58:06;;;;;;;5.40;5.00;;;20.00;55.60;;;19.62;47.52;97981.97;5010184;28;20455;-78
2023/06/16 08:00:35;;;;;;;5.70;5.20;;;20.00;54.80;;;19.88;46.93;97976.44;5010895;28;20576;-73
2023/06/16 08:03:02;;;;;;;6.40;5.10;;;20.10;54.60;;;20.01;46.57;97986.88;5009027;28;20938;-73
2023/06/16 08:05:32;;;;;;;6.10;5.50;;;20.30;54.40;;;20.32;45.70;97981.28;5028797;28;20463;-74
2023/06/16 08:07:59;;;;;;;5.83;5.30;;;20.40;54.10;;;20.35;45.26;97980.72;5031717;28;20456;-74
2023/06/16 08:10:27;;;;;;;5.43;4.93;;;20.60;53.80;;;20.61;45.34;97983.34;5022935;28;20462;-76
2023/06/16 08:12:55;;;;;;;7.20;5.10;;;20.70;54.00;;;20.56;44.96;97979.81;5005141;28;20520;-72
2023/06/16 08:15:22;;;;;;;5.87;5.20;;;20.80;53.60;;;20.25;43.77;97975.28;5028675;28;20471;-73
2023/06/16 08:17:51;;;;;;;5.10;4.70;;;20.70;52.20;;;20.29;44.03;97973.63;5023890;28;20461;-72
2023/06/16 08:20:18;;;;;;;8.53;5.30;;;20.60;52.20;;;20.36;43.91;97982.34;5033861;28;20970;-74
2023/06/16 08:22:46;;;;;;;4.73;4.33;;;20.60;52.50;;;20.33;43.62;97980.19;5013755;28;20460;-72
2023/06/16 08:25:13;;;;;;;5.33;4.83;;;20.50;51.90;;;20.21;44.93;97971.44;5027576;28;20468;-75
2023/06/16 08:27:40;;;;;;;7.50;5.40;;;20.50;53.00;;;20.06;45.66;97978.63;5016332;28;20464;-73
2023/06/16 08:30:10;;;;;;;5.70;5.10;;;20.30;53.20;;;20.32;45.50;97974.97;5007782;28;20458;-77
2023/06/16 08:32:37;;;;;;;6.50;5.13;;;20.50;53.40;;;20.49;44.33;97974.63;5025509;28;20480;-72
2023/06/16 08:35:07;;;;;;;5.40;4.47;;;20.60;53.00;;;20.50;45.06;97970.78;5028561;28;20968;-82
2023/06/16 08:37:34;;;;;;;6.67;5.70;;;20.70;53.20;;;20.54;44.94;97980.06;5028384;28;20459;-74
2023/06/16 08:40:04;;;;;;;5.47;4.97;;;20.70;53.50;;;20.49;44.32;97980.13;5006624;28;20472;-83
2023/06/16 08:42:34;;;;;;;6.00;5.35;;;20.70;52.80;;;20.60;44.00;97981.72;5026641;28;20459;-80
2023/06/16 08:45:03;;;;;;;5.30;4.90;;;20.70;52.80;;;20.48;45.50;97975.72;5012335;28;20537;-82
2023/06/16 08:47:30;;;;;;;4.93;4.53;;;20.80;53.50;;;20.78;44.74;97982.16;5008059;28;20471;-77
2023/06/16 08:49:58;;;;;;;5.33;4.83;;;20.90;53.60;;;20.51;44.84;97973.25;5026885;28;20458;-73
2023/06/16 08:52:28;;;;;;;5.43;4.70;;;20.80;52.90;;;20.60;45.26;97984.47;5026108;28;20477;-84
2023/06/16 08:55:01;;;;;;;4.90;4.50;;;20.80;53.50;;;20.56;45.36;97972.41;5028787;28;20473;-73
2023/06/16 08:57:30;;;;;;;4.93;4.43;;;20.70;53.40;;;20.79;44.59;97972.81;5023760;28;20461;-74
2023/06/16 08:59:59;;;;;;;5.33;4.83;;;20.90;53.10;;;20.66;44.50;97974.28;5028560;28;20546;-83
2023/06/16 09:02:29;;;;;;;5.73;5.10;;;20.90;52.90;;;20.63;43.83;97970.16;5006477;28;20461;-79
2023/06/16 09:04:58;;;;;;;4.70;4.30;;;20.90;52.30;;;20.79;44.27;97970.06;5028842;28;20458;-77
2023/06/16 09:07:29;;;;;;;4.93;4.33;;;21.00;52.80;;;20.94;43.20;97970.00;5025091;28;20528;-76
2023/06/16 09:09:57;;;;;;;5.40;4.53;;;21.10;52.10;;;20.78;42.81;97965.69;5019924;28;20507;-79
2023/06/16 09:12:24;;;;;;;4.50;4.10;;;21.10;51.60;;;20.52;42.92;97965.81;5027854;28;20466;-73
2023/06/16 09:14:52;;;;;;;5.30;4.37;;;20.80;51.40;;;20.58;42.40;97956.47;5013402;28;20790;-73
2023/06/16 09:17:24;;;;;;;5.53;4.20;;;20.80;51.10;;;20.67;42.41;97942.97;5031660;28;20472;-72
2023/06/16 09:19:54;;;;;;;5.27;4.77;;;20.90;50.90;;;20.77;42.12;97955.81;5028908;28;20472;-73
2023/06/16 09:22:27;;;;;;;6.13;4.70;;;21.00;50.90;;;20.82;42.60;97955.81;5027574;28;20472;-74
2023/06/16 09:24:55;;;;;;;4.63;4.20;;;21.00;51.00;;;21.13;42.75;97952.84;5007747;28;20462;-73
2023/06/16 09:27:24;;;;;;;6.53;5.10;;;21.30;51.80;;;21.30;43.00;97946.94;5009842;28;20525;-72
2023/06/16 09:29:59;;;;;;;5.63;5.13;;;21.40;51.80;;;21.44;41.79;97938.84;5023492;28;20454;-77
2023/06/16 09:32:27;;;;;;;5.17;4.67;;;21.60;51.40;;;21.58;40.73;97962.91;5018131;28;20489;-76
2023/06/16 09:34:54;;;;;;;5.10;4.57;;;21.70;50.30;;;21.49;40.07;97958.06;5026286;28;20446;-74
2023/06/16 09:37:21;;;;;;;4.87;4.40;;;21.70;49.60;;;21.57;40.41;97953.84;5028876;28;20490;-75
2023/06/16 09:39:50;;;;;;;4.70;4.30;;;21.80;49.90;;;21.63;40.51;97946.38;5030966;28;20452;-75
2023/06/16 09:42:18;;;;;;;4.70;4.03;;;21.80;50.10;;;21.54;39.98;97950.88;5032209;28;20494;-75
2023/06/16 09:44:46;;;;;;;5.40;4.90;;;21.80;49.40;;;21.59;40.08;97950.81;5015268;28;20854;-73
2023/06/16 09:47:14;;;;;;;4.43;3.90;;;21.70;49.40;;;21.54;38.97;97942.63;5015474;28;20994;-76
2023/06/16 09:49:45;;;;;;;4.00;3.60;;;21.80;48.60;;;21.65;38.47;97935.91;5033629;28;20532;-71
2023/06/16 09:52:12;;;;;;;4.90;4.50;;;21.80;48.30;;;21.58;38.94;97943.66;5029408;28;20954;-71
2023/06/16 09:54:40;;;;;;;4.53;4.13;;;21.80;48.40;;;21.58;39.17;97932.69;5033836;28;20455;-74
2023/06/16 09:57:09;;;;;;;4.17;3.77;;;21.70;48.50;;;21.81;38.66;97938.53;5033197;28;21058;-78
2023/06/16 09:59:37;;;;;;;4.10;3.80;;;21.90;48.50;;;21.89;38.98;97935.97;5032335;28;20838;-77
2023/06/16 10:02:06;;;;;;;5.30;4.80;;;22.00;48.70;;;22.00;38.88;97928.41;5031916;28;20955;-74
2023/06/16 10:04:35;;;;;;;4.67;4.27;;;22.10;48.60;;;22.29;38.09;97930.25;5034839;28;20457;-71
2023/06/16 10:07:08;;;;;;;4.13;3.80;;;22.40;48.50;;;22.26;37.98;97925.34;5039244;28;20452;-72
2023/06/16 10:09:41;;;;;;;4.57;3.73;;;22.40;48.00;;;22.46;38.18;97920.69;5030791;28;20544;-72
2023/06/16 10:12:12;;;;;;;4.17;3.77;;;22.50;48.30;;;22.34;37.04;97921.94;5032586;28;20518;-72
2023/06/16 10:14:42;;;;;;;4.60;4.20;;;22.60;47.30;;;22.64;36.89;97935.63;5014553;28;20824;-78
2023/06/16 10:17:11;;;;;;;4.37;3.97;;;22.70;47.50;;;22.40;36.94;97925.44;5029901;28;20461;-75
2023/06/16 10:19:42;;;;;;;4.20;3.80;;;22.70;47.20;;;22.73;36.77;97922.00;5033841;28;20460;-72
2023/06/16 10:22:09;;;;;;;5.57;4.20;;;22.70;47.40;;;22.43;37.06;97921.28;5014521;28;20463;-74